Time;durP1;ratioP1;P1;durP2;ratioP2;P2;SDS_P1;SDS_P2;PMS_P1;PMS_P2;Temp;Humidity;BMP_temperature;BMP_pressure;BME280_temperature;BME280_humidity;BME280_pressure;Samples;Min_cycle;Max_cycle;Signal;HPM_P1;HPM_P2
2023/10/10 00:00:47;;;;;;;7.33;6.40;;;12.40;99.90;;;;;;5001794;28;20026;-62
2023/10/10 00:06:38;;;;;;;9.45;7.15;;;12.40;99.90;;;;;;4998824;28;20053;-62
2023/10/10 00:09:13;;;;;;;7.45;6.85;;;12.40;99.90;;;;;;5002439;28;20026;-61
2023/10/10 00:11:45;;;;;;;11.65;6.80;;;12.40;99.90;;;;;;5005502;28;20014;-62
2023/10/10 00:14:17;;;;;;;10.40;7.13;;;12.40;99.90;;;;;;5001911;28;20029;-63
2023/10/10 00:16:43;;;;;;;10.38;7.00;;;12.30;99.90;;;;;;4999905;28;20030;-62
2023/10/10 00:19:29;;;;;;;9.15;7.00;;;12.30;99.90;;;;;;5010857;28;20371;-63
2023/10/10 00:21:55;;;;;;;10.57;6.72;;;12.20;99.90;;;;;;4999952;28;20461;-63
2023/10/10 00:24:24;;;;;;;7.57;6.18;;;12.20;99.90;;;;;;4999902;28;20154;-62
2023/10/10 00:26:50;;;;;;;6.72;5.93;;;12.10;99.90;;;;;;4998996;28;21418;-63
2023/10/10 00:29:22;;;;;;;9.30;6.45;;;12.10;99.90;;;;;;5002759;28;20023;-62
2023/10/10 00:31:55;;;;;;;7.10;6.40;;;12.10;99.90;;;;;;5002919;28;20022;-62
2023/10/10 00:34:30;;;;;;;8.40;6.63;;;12.00;99.90;;;;;;4999761;28;20038;-62
2023/10/10 00:36:58;;;;;;;13.43;7.03;;;12.00;99.90;;;;;;4998986;28;20038;-62
2023/10/10 00:39:30;;;;;;;8.52;7.30;;;12.00;99.90;;;;;;5000073;28;20031;-63
2023/10/10 00:42:04;;;;;;;13.57;8.40;;;12.00;99.90;;;;;;5001341;28;20038;-62
2023/10/10 00:44:30;;;;;;;10.57;6.65;;;12.00;99.90;;;;;;5003671;28;20030;-62
2023/10/10 00:46:57;;;;;;;10.93;7.57;;;12.00;99.90;;;;;;4999328;28;20030;-63
2023/10/10 00:49:31;;;;;;;8.00;7.20;;;11.90;99.90;;;;;;5000248;28;20038;-62
2023/10/10 00:52:01;;;;;;;10.05;7.40;;;11.90;99.90;;;;;;5001662;28;20034;-62
2023/10/10 00:54:31;;;;;;;9.25;6.68;;;11.90;99.90;;;;;;5000673;28;20053;-62
2023/10/10 00:56:59;;;;;;;7.10;6.15;;;11.90;99.90;;;;;;5001569;28;20397;-63
2023/10/10 00:59:35;;;;;;;7.60;5.97;;;11.90;99.90;;;;;;4998109;28;20500;-62
2023/10/10 01:02:04;;;;;;;6.70;6.10;;;11.90;99.90;;;;;;4997886;28;20038;-62
2023/10/10 01:04:39;;;;;;;6.43;5.82;;;11.90;99.90;;;;;;4998465;28;20031;-61
2023/10/10 01:07:08;;;;;;;6.97;5.53;;;11.90;99.90;;;;;;4997695;28;20537;-62
2023/10/10 01:09:39;;;;;;;6.90;6.35;;;11.90;99.90;;;;;;4996340;28;20104;-63
2023/10/10 01:12:05;;;;;;;7.18;6.13;;;11.90;99.90;;;;;;4997967;28;20143;-62
2023/10/10 01:14:31;;;;;;;6.72;5.95;;;11.80;99.90;;;;;;4998272;28;20092;-62
2023/10/10 01:16:58;;;;;;;6.18;5.68;;;11.80;99.90;;;;;;4998182;28;20026;-63
2023/10/10 01:19:30;;;;;;;6.57;5.88;;;11.80;99.90;;;;;;4999181;28;20076;-63
2023/10/10 01:22:03;;;;;;;6.70;6.05;;;11.80;99.90;;;;;;5000846;28;20022;-62
2023/10/10 01:24:32;;;;;;;6.25;5.75;;;11.80;99.90;;;;;;4999852;28;20030;-62
2023/10/10 01:27:14;;;;;;;7.00;6.30;;;11.90;99.90;;;;;;4999194;28;20026;-63
2023/10/10 01:29:50;;;;;;;13.38;6.88;;;11.80;99.90;;;;;;5003947;28;20011;-62
2023/10/10 01:32:17;;;;;;;9.77;6.68;;;11.80;99.90;;;;;;4997975;28;20109;-63
2023/10/10 01:34:43;;;;;;;9.57;6.55;;;11.90;99.90;;;;;;5001838;28;20034;-63
2023/10/10 01:37:22;;;;;;;9.57;6.68;;;11.90;99.90;;;;;;5002086;28;20572;-63
2023/10/10 01:42:43;;;;;;;4.88;4.03;;;11.80;99.90;;;;;;4999603;28;20073;-62
2023/10/10 01:45:09;;;;;;;5.15;4.65;;;11.80;99.90;;;;;;5000888;28;20026;-62
2023/10/10 01:47:35;;;;;;;5.25;4.35;;;11.80;99.90;;;;;;5001361;28;20029;-63
2023/10/10 01:50:08;;;;;;;6.90;5.28;;;11.80;99.90;;;;;;4999617;28;20042;-62
2023/10/10 01:52:45;;;;;;;7.72;4.75;;;11.70;99.90;;;;;;4998186;28;20125;-63
2023/10/10 01:55:12;;;;;;;6.68;4.90;;;11.70;99.90;;;;;;5000267;28;20433;-62
2023/10/10 01:57:38;;;;;;;4.63;4.22;;;11.70;99.90;;;;;;4998697;28;20101;-63
2023/10/10 02:00:19;;;;;;;6.18;5.00;;;11.60;99.90;;;;;;4999093;28;20537;-63
2023/10/10 02:02:49;;;;;;;5.05;4.05;;;11.60;99.90;;;;;;4998545;28;20026;-62
2023/10/10 02:05:25;;;;;;;6.22;5.63;;;11.60;99.90;;;;;;4998532;28;20039;-62
2023/10/10 02:07:53;;;;;;;10.07;5.45;;;11.50;99.90;;;;;;4999870;28;20038;-63
2023/10/10 02:10:19;;;;;;;32.15;6.22;;;11.50;99.90;;;;;;4998972;28;20501;-63
2023/10/10 02:12:45;;;;;;;41.58;6.60;;;11.50;99.90;;;;;;4998775;28;20045;-62
2023/10/10 02:15:13;;;;;;;34.83;6.43;;;11.50;99.90;;;;;;4997426;28;20113;-62
2023/10/10 02:17:40;;;;;;;13.40;4.78;;;11.50;99.90;;;;;;5002433;28;20018;-64
2023/10/10 02:23:01;;;;;;;4.97;4.47;;;11.40;99.90;;;;;;4997319;28;20125;-62
2023/10/10 02:27:57;;;;;;;6.70;5.90;;;11.40;99.90;;;;;;4998361;28;20101;-63
2023/10/10 02:30:37;;;;;;;7.53;4.72;;;11.40;99.90;;;;;;4997021;28;20034;-62
2023/10/10 02:35:56;;;;;;;11.05;5.43;;;11.30;99.90;;;;;;4999069;28;20014;-63
2023/10/10 02:38:39;;;;;;;6.28;4.85;;;11.30;99.90;;;;;;4999197;28;20030;-63
2023/10/10 02:46:34;;;;;;;7.20;4.20;;;11.20;99.90;;;;;;5000803;28;20065;-63
2023/10/10 02:49:50;;;;;;;6.75;4.00;;;11.20;99.90;;;;;;4999212;28;20436;-62
2023/10/10 02:51:57;;;;;;;8.93;4.35;;;11.20;99.90;;;;;;4996231;28;20061;-63
2023/10/10 02:54:34;;;;;;;17.10;4.07;;;11.20;99.90;;;;;;4995826;28;20126;-62
2023/10/10 02:59:50;;;;;;;8.05;3.42;;;11.10;99.90;;;;;;5002264;28;20126;-61
2023/10/10 03:02:28;;;;;;;25.08;3.30;;;11.10;99.90;;;;;;5001653;28;20037;-63
2023/10/10 03:07:29;;;;;;;2.55;2.10;;;11.00;99.90;;;;;;5005090;28;20041;-62
2023/10/10 03:10:46;;;;;;;5.85;2.65;;;11.00;99.90;;;;;;4999525;28;20026;-62
2023/10/10 03:12:49;;;;;;;16.17;2.92;;;10.90;99.90;;;;;;5001184;28;20040;-62
2023/10/10 03:15:38;;;;;;;7.97;2.30;;;10.90;99.90;;;;;;5005076;28;20048;-62
2023/10/10 03:20:50;;;;;;;8.40;2.88;;;10.80;99.90;;;;;;5001471;28;20022;-63
2023/10/10 03:26:04;;;;;;;5.65;3.08;;;10.80;99.90;;;;;;5001179;28;20048;-63
2023/10/10 03:28:33;;;;;;;26.13;3.53;;;10.80;99.90;;;;;;5000769;28;20035;-62
2023/10/10 03:31:09;;;;;;;34.03;3.88;;;10.70;99.90;;;;;;5000752;28;20041;-62
2023/10/10 03:33:37;;;;;;;22.00;3.15;;;10.60;99.90;;;;;;5000726;28;20064;-62
2023/10/10 05:25:41;;;;;;;31.13;7.53;;;10.50;99.90;;;;;;4999835;28;20153;-63
2023/10/10 05:28:09;;;;;;;16.35;6.88;;;10.60;99.90;;;;;;4998557;28;20022;-62
2023/10/10 05:30:44;;;;;;;13.90;8.73;;;10.60;99.90;;;;;;5001114;28;20041;-62
2023/10/10 05:33:10;;;;;;;36.70;10.77;;;10.70;99.90;;;;;;4993854;28;20088;-64
2023/10/10 05:35:44;;;;;;;20.52;8.80;;;10.70;99.90;;;;;;4998641;28;20030;-62
2023/10/10 05:38:10;;;;;;;15.25;8.38;;;10.80;99.90;;;;;;4998154;28;20026;-62
2023/10/10 05:40:40;;;;;;;61.95;7.68;;;10.80;99.90;;;;;;5000008;28;20029;-63
2023/10/10 05:43:09;;;;;;;34.17;5.95;;;10.80;99.90;;;;;;5000528;28;20053;-62
2023/10/10 05:45:38;;;;;;;24.05;4.90;;;10.80;99.90;;;;;;5002009;28;20034;-62
2023/10/10 05:48:07;;;;;;;10.90;3.80;;;10.70;99.90;;;;;;5001880;28;20055;-63
2023/10/10 05:50:33;;;;;;;28.30;4.72;;;10.70;99.90;;;;;;5003430;28;20129;-63
2023/10/10 05:53:00;;;;;;;15.00;4.93;;;10.70;99.90;;;;;;5002607;28;20038;-62
2023/10/10 05:55:28;;;;;;;20.92;5.40;;;10.60;99.90;;;;;;5002184;28;20030;-63
2023/10/10 05:57:57;;;;;;;14.23;4.90;;;10.60;99.90;;;;;;5001467;28;20050;-63
2023/10/10 06:00:26;;;;;;;9.68;5.00;;;10.60;99.90;;;;;;4998659;28;20081;-63
2023/10/10 06:02:52;;;;;;;10.20;4.53;;;10.60;99.90;;;;;;5001868;28;20033;-62
2023/10/10 06:05:18;;;;;;;10.55;5.72;;;10.60;99.90;;;;;;5000525;28;20069;-63
2023/10/10 06:07:43;;;;;;;6.25;4.53;;;10.60;99.90;;;;;;5001710;28;20030;-63
2023/10/10 06:10:15;;;;;;;13.48;5.57;;;10.60;99.90;;;;;;5000281;28;20026;-62
2023/10/10 06:12:42;;;;;;;10.82;4.85;;;10.70;99.90;;;;;;5000147;28;20026;-63
2023/10/10 06:15:08;;;;;;;12.82;5.38;;;10.70;99.90;;;;;;5001878;28;20050;-63
2023/10/10 06:17:34;;;;;;;13.27;5.53;;;10.70;99.90;;;;;;5001191;28;20436;-62
2023/10/10 06:20:06;;;;;;;28.77;6.65;;;10.80;99.90;;;;;;4998840;28;20081;-62
2023/10/10 06:22:32;;;;;;;27.60;6.82;;;10.80;99.90;;;;;;4999789;28;20057;-62
2023/10/10 06:24:58;;;;;;;28.73;8.02;;;10.80;99.90;;;;;;5001499;28;20077;-63
2023/10/10 06:27:30;;;;;;;36.70;8.23;;;10.80;99.90;;;;;;5001691;28;20038;-62
2023/10/10 06:29:58;;;;;;;19.73;7.25;;;10.90;99.90;;;;;;5000405;28;20087;-62
2023/10/10 06:32:26;;;;;;;10.98;7.22;;;11.00;99.90;;;;;;4998318;28;20094;-63
2023/10/10 06:35:14;;;;;;;14.63;7.15;;;11.00;99.90;;;;;;5001028;28;20045;-62
2023/10/10 06:37:38;;;;;;;7.97;6.28;;;11.10;99.90;;;;;;5004972;28;20026;-63
2023/10/10 06:40:08;;;;;;;7.30;6.45;;;11.20;99.90;;;;;;5004211;28;20099;-63
2023/10/10 06:42:37;;;;;;;6.85;5.88;;;11.30;99.90;;;;;;5003651;28;20680;-63
2023/10/10 06:45:08;;;;;;;6.65;5.55;;;11.40;99.90;;;;;;5003563;28;20030;-63
2023/10/10 06:47:39;;;;;;;5.77;5.03;;;11.40;99.90;;;;;;5004062;28;20117;-63
2023/10/10 06:50:10;;;;;;;8.15;5.80;;;11.50;99.90;;;;;;5004313;28;20806;-63
2023/10/10 06:52:37;;;;;;;7.53;4.93;;;11.60;99.90;;;;;;5004833;28;20044;-62
2023/10/10 06:55:10;;;;;;;4.60;4.20;;;11.50;99.90;;;;;;5004525;28;20796;-63
2023/10/10 06:57:38;;;;;;;4.32;3.92;;;11.50;99.90;;;;;;5004141;28;20046;-63
2023/10/10 07:02:50;;;;;;;5.97;4.70;;;11.60;99.90;;;;;;5004063;28;20030;-65
2023/10/10 07:05:18;;;;;;;5.88;4.20;;;11.60;99.90;;;;;;5004383;28;20046;-65
2023/10/10 07:07:46;;;;;;;4.72;4.32;;;11.60;99.90;;;;;;5005090;28;20412;-63
2023/10/10 07:10:24;;;;;;;5.20;4.70;;;11.70;99.90;;;;;;5005364;28;20400;-63
2023/10/10 07:12:53;;;;;;;7.38;4.38;;;11.80;99.90;;;;;;5006280;28;20481;-63
2023/10/10 07:15:23;;;;;;;6.18;4.82;;;11.80;99.90;;;;;;5005138;28;20472;-63
2023/10/10 07:17:49;;;;;;;5.75;4.60;;;12.00;99.90;;;;;;5005540;28;20026;-62
2023/10/10 07:22:43;;;;;;;5.80;5.13;;;12.10;99.90;;;;;;5003863;28;20026;-66
2023/10/10 07:25:24;;;;;;;8.60;4.60;;;12.20;99.90;;;;;;5001045;28;20031;-64
2023/10/10 07:27:50;;;;;;;5.88;4.68;;;12.30;99.90;;;;;;5000022;28;20081;-64
2023/10/10 07:30:18;;;;;;;5.43;4.70;;;12.50;99.90;;;;;;5003324;28;20033;-63
2023/10/10 07:32:48;;;;;;;4.88;4.47;;;12.50;99.90;;;;;;5003733;28;20606;-63
2023/10/10 07:35:21;;;;;;;5.13;4.50;;;12.60;99.90;;;;;;5003197;28;20040;-65
2023/10/10 07:37:47;;;;;;;5.60;4.90;;;12.70;99.90;;;;;;4998612;28;20030;-65
2023/10/10 07:42:40;;;;;;;7.47;5.07;;;12.80;99.90;;;;;;5001572;28;20022;-65
2023/10/10 07:45:52;;;;;;;7.97;5.30;;;12.90;99.90;;;;;;5001926;28;20045;-65
2023/10/10 07:50:34;;;;;;;6.95;5.07;;;13.10;99.90;;;;;;4999420;28;20026;-65
2023/10/10 07:53:03;;;;;;;5.57;4.78;;;13.20;99.90;;;;;;5003810;28;20045;-65
2023/10/10 07:55:34;;;;;;;5.72;5.03;;;13.40;99.90;;;;;;5000783;28;20030;-65
2023/10/10 07:57:59;;;;;;;6.07;5.33;;;13.60;99.90;;;;;;5001433;28;20405;-64
2023/10/10 08:00:35;;;;;;;6.90;5.93;;;13.80;99.90;;;;;;5001930;28;20034;-65
2023/10/10 08:03:06;;;;;;;8.45;5.63;;;14.00;99.90;;;;;;5000632;28;20026;-64
2023/10/10 08:05:32;;;;;;;7.53;6.38;;;14.10;99.90;;;;;;5000047;28;20038;-62
2023/10/10 08:08:04;;;;;;;8.40;5.53;;;14.30;99.90;;;;;;4996450;28;20093;-63
2023/10/10 08:10:38;;;;;;;9.75;6.03;;;14.30;99.90;;;;;;4999586;28;20126;-63
2023/10/10 08:13:10;;;;;;;6.80;6.10;;;14.40;99.90;;;;;;5000500;28;20397;-63
2023/10/10 08:15:50;;;;;;;8.43;6.00;;;14.50;99.90;;;;;;4998951;28;20582;-63
2023/10/10 08:18:40;;;;;;;6.60;6.00;;;14.60;99.90;;;;;;4999056;28;20086;-63
2023/10/10 08:23:30;;;;;;;8.02;6.88;;;14.80;99.90;;;;;;4999779;28;20030;-63
2023/10/10 08:25:56;;;;;;;9.63;7.45;;;14.90;99.90;;;;;;5000961;28;20105;-63
2023/10/10 08:28:23;;;;;;;8.25;7.43;;;14.90;99.90;;;;;;4999535;28;20061;-63
2023/10/10 08:30:49;;;;;;;8.98;7.68;;;15.00;99.90;;;;;;4999893;28;20030;-63
2023/10/10 08:33:15;;;;;;;8.65;7.38;;;15.20;99.90;;;;;;5001129;28;20034;-63
2023/10/10 08:35:42;;;;;;;12.02;7.13;;;15.40;99.90;;;;;;4998862;28;20108;-63
2023/10/10 08:38:13;;;;;;;8.85;7.63;;;15.50;99.90;;;;;;5001375;28;20030;-64
2023/10/10 08:40:40;;;;;;;10.75;7.75;;;15.70;99.90;;;;;;5001007;28;20068;-63
2023/10/10 08:43:10;;;;;;;13.48;6.72;;;15.70;99.90;;;;;;5001270;28;20023;-63
2023/10/10 08:45:43;;;;;;;10.30;8.85;;;15.80;99.90;;;;;;5000102;28;20026;-62
2023/10/10 08:48:13;;;;;;;14.45;10.73;;;15.80;99.90;;;;;;4999103;28;20141;-63
2023/10/10 08:50:44;;;;;;;10.02;8.38;;;15.80;99.90;;;;;;4999530;28;20158;-64
2023/10/10 08:53:11;;;;;;;16.10;12.85;;;15.90;99.90;;;;;;4997832;28;20092;-64
2023/10/10 08:55:38;;;;;;;11.90;9.77;;;15.90;99.90;;;;;;4998917;28;20030;-63
2023/10/10 08:58:07;;;;;;;17.13;10.60;;;16.00;99.90;;;;;;4996328;28;20074;-64
2023/10/10 09:00:33;;;;;;;16.92;11.90;;;16.10;99.90;;;;;;5000985;28;20061;-63
2023/10/10 09:02:59;;;;;;;13.75;11.50;;;16.30;99.90;;;;;;4998395;28;20018;-63
2023/10/10 09:05:28;;;;;;;17.35;11.73;;;16.40;99.90;;;;;;4999327;28;20048;-63
2023/10/10 09:07:54;;;;;;;22.83;12.55;;;16.50;99.90;;;;;;4999567;28;20030;-64
2023/10/10 09:10:30;;;;;;;17.77;12.02;;;16.50;99.90;;;;;;5000159;28;20121;-63
2023/10/10 09:12:56;;;;;;;20.33;12.73;;;16.60;99.90;;;;;;5000831;28;20508;-63
2023/10/10 09:15:27;;;;;;;17.13;11.90;;;16.80;99.90;;;;;;5000195;28;20034;-62
2023/10/10 09:18:10;;;;;;;16.23;11.77;;;16.90;99.90;;;;;;4999692;28;20620;-63
2023/10/10 09:20:37;;;;;;;21.63;12.00;;;17.10;99.90;;;;;;5006102;28;20030;-64
2023/10/10 09:23:18;;;;;;;14.00;11.50;;;17.40;99.90;;;;;;5000386;28;20041;-63
2023/10/10 09:25:48;;;;;;;13.40;10.98;;;17.80;99.90;;;;;;4997214;28;20041;-64
2023/10/10 09:28:16;;;;;;;16.75;10.43;;;18.30;99.90;;;;;;5000537;28;20029;-63
2023/10/10 09:30:58;;;;;;;15.25;10.88;;;18.80;99.90;;;;;;4999714;28;20034;-62
2023/10/10 09:33:33;;;;;;;12.38;11.07;;;19.20;99.90;;;;;;4998211;28;20513;-63
2023/10/10 09:36:09;;;;;;;16.45;10.68;;;19.50;99.90;;;;;;4999275;28;20022;-61
2023/10/10 09:38:45;;;;;;;15.85;11.32;;;19.60;99.90;;;;;;4999005;28;20505;-63
2023/10/10 10:00:45;;;;;;;17.80;13.40;;;19.60;99.90;;;;;;4996532;28;20045;-64
2023/10/10 10:03:31;;;;;;;14.60;13.00;;;19.50;99.90;;;;;;4998398;28;20027;-64
2023/10/10 10:09:16;;;;;;;22.23;12.75;;;19.50;99.90;;;;;;4999052;28;20014;-64
2023/10/10 10:12:08;;;;;;;18.25;12.25;;;19.50;99.90;;;;;;5003537;28;20041;-64
2023/10/10 10:14:55;;;;;;;16.27;13.18;;;19.50;99.90;;;;;;5006272;28;20029;-63
2023/10/10 10:17:50;;;;;;;15.40;12.43;;;19.60;99.90;;;;;;5003006;28;20038;-63
2023/10/10 10:20:33;;;;;;;15.98;13.25;;;19.60;99.90;;;;;;5003850;28;20099;-64
2023/10/10 10:23:00;;;;;;;21.08;13.85;;;19.40;99.90;;;;;;5003321;28;20161;-64
2023/10/10 10:25:32;;;;;;;20.15;13.82;;;19.40;99.90;;;;;;5001937;28;20041;-63
2023/10/10 10:28:10;;;;;;;19.05;13.25;;;19.40;99.90;;;;;;5001759;28;20085;-63
2023/10/10 10:30:50;;;;;;;15.13;13.02;;;19.40;99.90;;;;;;5001769;28;20030;-63
2023/10/10 10:33:20;;;;;;;17.45;13.20;;;19.50;99.90;;;;;;5000672;28;20034;-64
2023/10/10 10:35:58;;;;;;;17.90;12.70;;;19.50;99.90;;;;;;5000309;28;20014;-63
2023/10/10 10:38:23;;;;;;;24.58;13.35;;;19.60;99.90;;;;;;5001436;28;20046;-63
2023/10/10 10:40:50;;;;;;;21.52;13.00;;;19.80;99.90;;;;;;5001650;28;20048;-63
2023/10/10 10:43:31;;;;;;;19.75;13.88;;;19.90;99.90;;;;;;5003106;28;20414;-63
2023/10/10 10:46:27;;;;;;;17.15;14.10;;;20.00;99.90;;;;;;5000331;28;20116;-63
2023/10/10 10:49:05;;;;;;;15.93;12.65;;;20.00;99.90;;;;;;4999888;28;20069;-63
2023/10/10 10:51:43;;;;;;;19.52;13.68;;;20.00;99.90;;;;;;5000193;28;20030;-63
2023/10/10 10:54:35;;;;;;;20.55;11.93;;;20.00;99.90;;;;;;5003169;28;20084;-63
2023/10/10 10:57:04;;;;;;;19.58;12.85;;;20.00;99.90;;;;;;5007850;28;20026;-64
2023/10/10 10:59:38;;;;;;;17.77;13.40;;;20.00;99.90;;;;;;5000465;28;20061;-62
2023/10/10 11:02:14;;;;;;;17.05;12.88;;;20.00;99.90;;;;;;5002437;28;20026;-64
2023/10/10 11:04:43;;;;;;;20.63;12.77;;;20.00;99.90;;;;;;5002509;28;20033;-63
2023/10/10 11:07:15;;;;;;;18.63;12.82;;;20.00;99.90;;;;;;5001880;28;20034;-64
2023/10/10 11:09:52;;;;;;;16.75;11.82;;;20.10;99.90;;;;;;5003079;28;20030;-64
2023/10/10 11:12:21;;;;;;;19.05;11.52;;;20.20;99.90;;;;;;4999003;28;20026;-63
2023/10/10 11:14:49;;;;;;;15.75;12.38;;;20.30;99.90;;;;;;5002470;28;20548;-64
2023/10/10 11:17:18;;;;;;;14.43;12.98;;;20.40;99.90;;;;;;5000270;28;20034;-63
2023/10/10 11:19:47;;;;;;;13.93;11.88;;;20.40;99.90;;;;;;5001373;28;20048;-63
2023/10/10 11:25:04;;;;;;;19.23;12.13;;;20.50;99.90;;;;;;5001764;28;20037;-62
2023/10/10 11:27:43;;;;;;;18.75;10.75;;;20.60;99.90;;;;;;5002658;28;20117;-63
2023/10/10 11:30:11;;;;;;;17.38;11.15;;;20.70;99.90;;;;;;4999657;28;20033;-64
2023/10/10 11:32:46;;;;;;;17.70;11.88;;;20.80;99.90;;;;;;4999933;28;20017;-63
2023/10/10 11:35:22;;;;;;;22.83;12.48;;;20.90;99.90;;;;;;4994510;28;20049;-64
2023/10/10 11:37:59;;;;;;;15.82;13.55;;;20.90;99.90;;;;;;4998975;28;20478;-64
2023/10/10 11:42:57;;;;;;;20.50;13.63;;;20.90;99.90;;;;;;5001103;28;20025;-63
2023/10/10 11:45:27;;;;;;;22.42;12.48;;;21.00;99.90;;;;;;5002525;28;20037;-64
2023/10/10 11:48:00;;;;;;;23.35;12.75;;;21.00;99.90;;;;;;5001277;28;20389;-63
2023/10/10 11:50:43;;;;;;;15.27;12.05;;;21.10;99.90;;;;;;5002401;28;20034;-63
2023/10/10 11:53:13;;;;;;;15.50;11.07;;;21.30;99.90;;;;;;4998266;28;20038;-64
2023/10/10 11:55:41;;;;;;;11.82;10.65;;;21.40;99.90;;;;;;4998151;28;20077;-64
2023/10/10 11:58:16;;;;;;;12.60;10.50;;;21.60;99.90;;;;;;5002089;28;20172;-64
2023/10/10 12:00:43;;;;;;;13.80;11.07;;;21.70;99.90;;;;;;5001702;28;20104;-64
2023/10/10 12:03:19;;;;;;;11.98;10.68;;;21.70;99.90;;;;;;5001318;28;20030;-64
2023/10/10 12:05:47;;;;;;;13.05;9.82;;;21.90;99.90;;;;;;5001420;28;20010;-64
2023/10/10 12:08:15;;;;;;;10.20;8.68;;;21.90;99.90;;;;;;5001147;28;20030;-64
2023/10/10 12:10:47;;;;;;;11.00;9.50;;;22.10;99.90;;;;;;5001521;28;20030;-62
2023/10/10 12:13:25;;;;;;;15.07;9.82;;;22.10;99.90;;;;;;4999416;28;20532;-64
2023/10/10 12:15:51;;;;;;;14.85;8.82;;;22.10;99.90;;;;;;4999860;28;20482;-64
2023/10/10 12:18:17;;;;;;;14.43;9.57;;;22.20;99.90;;;;;;5002905;28;20030;-64
2023/10/10 12:20:44;;;;;;;11.38;9.07;;;22.20;99.90;;;;;;5001266;28;20513;-63
2023/10/10 12:23:11;;;;;;;18.98;9.70;;;22.20;99.90;;;;;;5001063;28;20022;-64
2023/10/10 12:25:40;;;;;;;11.52;8.68;;;22.30;99.90;;;;;;5004748;28;21332;-64
2023/10/10 12:28:12;;;;;;;11.15;7.20;;;22.20;99.90;;;;;;5000340;28;20498;-64
2023/10/10 12:30:40;;;;;;;9.13;7.05;;;22.30;99.90;;;;;;5007338;28;20054;-63
2023/10/10 12:33:13;;;;;;;9.38;7.93;;;22.30;99.90;;;;;;5000890;28;20104;-63
2023/10/10 12:35:47;;;;;;;8.52;7.35;;;22.40;99.90;;;;;;5004936;28;20022;-63
2023/10/10 12:38:20;;;;;;;16.55;8.35;;;22.50;99.90;;;;;;5000909;28;20031;-63
2023/10/10 12:40:50;;;;;;;10.82;7.88;;;22.40;99.90;;;;;;5000213;28;20097;-61
2023/10/10 12:43:20;;;;;;;10.02;6.95;;;22.50;99.90;;;;;;5001841;28;20092;-64
2023/10/10 12:45:47;;;;;;;12.27;8.00;;;22.40;99.90;;;;;;5000173;28;20056;-63
2023/10/10 12:48:14;;;;;;;10.40;7.20;;;22.40;99.90;;;;;;5000727;28;20037;-63
2023/10/10 12:50:46;;;;;;;7.93;6.93;;;22.30;99.90;;;;;;4997449;28;20034;-63
2023/10/10 12:53:15;;;;;;;8.48;7.13;;;22.30;99.90;;;;;;4994095;28;20525;-63
2023/10/10 12:56:00;;;;;;;8.30;6.15;;;22.20;99.90;;;;;;5000380;28;20029;-63
2023/10/10 12:58:27;;;;;;;9.30;5.88;;;22.30;99.90;;;;;;5001479;28;20544;-63
2023/10/10 13:00:53;;;;;;;10.35;5.57;;;22.30;99.90;;;;;;5001462;28;20037;-62
2023/10/10 13:03:30;;;;;;;9.50;6.13;;;22.30;99.90;;;;;;4996996;28;20034;-63
2023/10/10 13:06:00;;;;;;;7.38;5.25;;;22.30;99.90;;;;;;5001408;28;20042;-63
2023/10/10 13:08:39;;;;;;;6.72;4.97;;;22.30;99.90;;;;;;4997268;28;20041;-63
2023/10/10 13:11:14;;;;;;;9.93;5.00;;;22.30;99.90;;;;;;4997854;28;20497;-63
2023/10/10 13:13:51;;;;;;;6.97;4.95;;;22.30;99.90;;;;;;4997172;28;20060;-63
2023/10/10 13:16:24;;;;;;;8.30;4.03;;;22.30;99.90;;;;;;5001502;28;20030;-63
2023/10/10 13:18:54;;;;;;;6.75;4.03;;;22.20;99.90;;;;;;4999496;28;20030;-63
2023/10/10 13:21:20;;;;;;;6.38;4.68;;;22.30;99.90;;;;;;4999664;28;20112;-63
2023/10/10 13:23:51;;;;;;;6.95;4.28;;;22.40;99.90;;;;;;5004477;28;20057;-63
2023/10/10 13:26:17;;;;;;;8.57;5.20;;;22.50;99.90;;;;;;5004144;28;20141;-64
2023/10/10 13:28:44;;;;;;;8.40;4.90;;;22.50;99.90;;;;;;4998448;28;20405;-64
2023/10/10 13:31:17;;;;;;;6.88;4.68;;;22.50;99.90;;;;;;4996963;28;20114;-64
2023/10/10 13:33:43;;;;;;;9.90;4.82;;;22.50;99.90;;;;;;4998687;28;20045;-63
2023/10/10 13:36:17;;;;;;;9.70;4.63;;;22.40;99.90;;;;;;5001645;28;20034;-64
2023/10/10 13:38:47;;;;;;;12.32;4.80;;;22.40;99.90;;;;;;5003571;28;20023;-63
2023/10/10 13:41:18;;;;;;;5.78;4.35;;;22.50;99.90;;;;;;5001846;28;20505;-63
2023/10/10 13:43:44;;;;;;;;;;;22.60;99.90;;;;;;4997074;28;20057;-63
2023/10/10 13:46:10;;;;;;;8.93;4.78;;;22.70;99.90;;;;;;5000739;28;19917;-64
2023/10/10 13:48:38;;;;;;;9.82;4.25;;;22.70;99.90;;;;;;5001184;28;20085;-63
2023/10/10 13:51:05;;;;;;;8.45;3.85;;;22.70;99.90;;;;;;5004722;28;20544;-63
2023/10/10 13:53:32;;;;;;;9.30;4.60;;;22.70;99.90;;;;;;5000684;28;20108;-63
2023/10/10 13:56:00;;;;;;;6.35;3.20;;;22.70;99.90;;;;;;5002367;28;20092;-64
2023/10/10 13:58:26;;;;;;;5.25;3.53;;;22.70;99.90;;;;;;4999257;28;20033;-63
2023/10/10 14:00:55;;;;;;;6.47;3.47;;;22.70;99.90;;;;;;5004138;28;20126;-64
2023/10/10 14:03:35;;;;;;;5.85;3.40;;;22.70;99.90;;;;;;4998914;28;20053;-63
2023/10/10 14:06:07;;;;;;;7.72;3.60;;;22.60;99.90;;;;;;4999237;28;20021;-63
2023/10/10 14:08:33;;;;;;;6.20;3.47;;;22.70;99.90;;;;;;4999194;28;20034;-63
2023/10/10 14:11:00;;;;;;;7.82;4.03;;;22.70;99.90;;;;;;4999855;28;20030;-63
2023/10/10 14:13:27;;;;;;;7.53;3.75;;;22.80;99.90;;;;;;4999659;28;20054;-64
2023/10/10 14:15:57;;;;;;;6.20;3.80;;;22.80;99.90;;;;;;5002831;28;20034;-63
2023/10/10 14:18:30;;;;;;;9.63;4.72;;;22.80;99.90;;;;;;4999411;28;20049;-63
2023/10/10 14:21:00;;;;;;;6.50;3.95;;;22.80;99.90;;;;;;5000370;28;20032;-63
2023/10/10 14:23:27;;;;;;;6.05;3.83;;;22.90;99.90;;;;;;5002436;28;20030;-63
2023/10/10 14:26:12;;;;;;;9.07;4.35;;;22.90;99.90;;;;;;4999522;28;20301;-63
2023/10/10 14:28:38;;;;;;;10.38;4.70;;;22.90;99.90;;;;;;4999565;28;20027;-63
2023/10/10 14:31:04;;;;;;;5.07;3.67;;;22.70;99.90;;;;;;5000595;28;20112;-63
2023/10/10 14:33:29;;;;;;;10.02;3.70;;;22.70;99.90;;;;;;4999895;28;20141;-62
2023/10/10 14:35:55;;;;;;;5.78;3.63;;;22.70;99.90;;;;;;4999518;28;20499;-63
2023/10/10 14:38:21;;;;;;;9.77;3.78;;;22.60;99.90;;;;;;4996740;28;20026;-63
2023/10/10 14:40:46;;;;;;;5.28;3.63;;;22.50;99.90;;;;;;4997958;28;20030;-63
2023/10/10 14:43:12;;;;;;;5.88;3.97;;;22.50;99.90;;;;;;5000447;28;20038;-63
2023/10/10 14:45:44;;;;;;;6.00;3.67;;;22.60;99.90;;;;;;5000910;28;20048;-63
2023/10/10 14:48:18;;;;;;;7.05;3.75;;;22.60;99.90;;;;;;5002052;28;20034;-63
2023/10/10 14:50:52;;;;;;;5.35;3.25;;;22.60;99.90;;;;;;5012914;28;20022;-64
2023/10/10 14:53:22;;;;;;;5.57;4.07;;;22.50;99.90;;;;;;5000437;28;20061;-62
2023/10/10 14:55:51;;;;;;;5.82;4.03;;;22.50;99.90;;;;;;4998302;28;20040;-63
2023/10/10 14:58:21;;;;;;;6.60;4.13;;;22.50;99.90;;;;;;5004558;28;20112;-63
2023/10/10 15:00:49;;;;;;;6.38;3.97;;;22.40;99.90;;;;;;5003857;28;20046;-62
2023/10/10 15:03:16;;;;;;;7.65;4.10;;;22.30;99.90;;;;;;5006738;28;20026;-63
2023/10/10 15:05:52;;;;;;;6.32;3.75;;;22.20;99.90;;;;;;5006640;28;20900;-63
2023/10/10 15:08:22;;;;;;;7.88;4.47;;;22.10;99.90;;;;;;5004650;28;20096;-63
2023/10/10 15:10:51;;;;;;;8.20;4.05;;;22.10;99.90;;;;;;5005699;28;20046;-63
2023/10/10 15:13:17;;;;;;;5.28;3.75;;;22.00;99.90;;;;;;5004236;28;20034;-63
2023/10/10 15:15:48;;;;;;;5.40;3.38;;;21.90;99.90;;;;;;5007404;28;20026;-63
2023/10/10 15:18:15;;;;;;;5.40;3.95;;;21.80;99.90;;;;;;5002668;28;20030;-64
2023/10/10 15:20:46;;;;;;;8.98;4.32;;;21.70;99.90;;;;;;5003598;28;20100;-63
2023/10/10 15:23:19;;;;;;;5.10;4.28;;;21.70;99.90;;;;;;5004684;28;20052;-63
2023/10/10 15:26:06;;;;;;;7.40;4.10;;;21.50;99.90;;;;;;5006848;28;20114;-63
2023/10/10 15:28:32;;;;;;;6.78;3.78;;;21.40;99.90;;;;;;5005110;28;20108;-63
2023/10/10 15:30:58;;;;;;;9.32;4.10;;;21.30;99.90;;;;;;5007279;28;20052;-63
2023/10/10 15:33:25;;;;;;;9.10;3.70;;;21.20;99.90;;;;;;5003750;28;20489;-63
2023/10/10 15:35:52;;;;;;;7.80;3.85;;;21.10;99.90;;;;;;5005286;28;20109;-63
2023/10/10 15:38:19;;;;;;;9.20;4.28;;;21.10;99.90;;;;;;5002981;28;20095;-63
2023/10/10 15:40:46;;;;;;;6.60;3.95;;;21.10;99.90;;;;;;5003205;28;20483;-64
2023/10/10 15:43:11;;;;;;;5.15;3.63;;;21.10;99.90;;;;;;5002783;28;20532;-63
2023/10/10 15:45:47;;;;;;;7.40;3.65;;;21.10;99.90;;;;;;5001902;28;20033;-63
2023/10/10 15:48:22;;;;;;;6.43;3.60;;;21.10;99.90;;;;;;5004543;28;20502;-64
2023/10/10 15:50:51;;;;;;;7.20;3.88;;;21.20;99.90;;;;;;5003022;28;20034;-63
2023/10/10 15:53:18;;;;;;;8.35;3.35;;;21.20;99.90;;;;;;5004610;28;20117;-64
2023/10/10 15:55:43;;;;;;;7.55;4.35;;;21.20;99.90;;;;;;5003160;28;20034;-63
2023/10/10 15:58:09;;;;;;;6.35;4.05;;;21.20;99.90;;;;;;5002503;28;20026;-63
2023/10/10 16:00:37;;;;;;;5.47;3.65;;;21.10;99.90;;;;;;5002531;28;20089;-63